createdAt,value
2018-12-12T00:01:11.606Z,6.75
2018-12-12T00:03:54.859Z,7.35
2018-12-12T00:06:37.751Z,7.62
2018-12-12T00:09:20.307Z,7.92
2018-12-12T00:12:02.136Z,5.53
2018-12-12T00:14:43.872Z,8.25
2018-12-12T00:17:25.718Z,10.32
2018-12-12T00:20:07.731Z,7.15
2018-12-12T00:22:49.319Z,12.10
2018-12-12T00:25:31.010Z,11.80
2018-12-12T00:28:13.986Z,11.85
2018-12-12T00:30:55.988Z,10.40
2018-12-12T00:33:38.099Z,11.20
2018-12-12T00:36:20.376Z,9.23
2018-12-12T00:39:01.960Z,9.40
2018-12-12T00:41:45.905Z,9.83
2018-12-12T00:44:27.577Z,7.05
2018-12-12T00:47:08.830Z,9.63
2018-12-12T00:49:50.241Z,8.45
2018-12-12T00:52:33.032Z,7.85
2018-12-12T00:55:14.906Z,8.78
2018-12-12T00:57:57.505Z,8.03
2018-12-12T01:00:40.000Z,8.03
2018-12-12T01:03:21.837Z,6.28
2018-12-12T01:06:03.028Z,5.65
2018-12-12T01:08:44.784Z,6.75
2018-12-12T01:11:31.366Z,8.45
2018-12-12T01:14:13.463Z,8.88
2018-12-12T01:16:55.152Z,8.53
2018-12-12T01:19:38.019Z,6.47
2018-12-12T01:22:19.792Z,7.17
2018-12-12T01:25:02.075Z,7.90
2018-12-12T01:27:44.828Z,5.75
2018-12-12T01:30:26.171Z,6.85
2018-12-12T01:33:08.502Z,8.98
2018-12-12T01:35:50.290Z,7.53
2018-12-12T01:38:31.428Z,7.30
2018-12-12T01:41:14.051Z,7.12
2018-12-12T01:43:55.750Z,8.03
2018-12-12T01:46:37.502Z,7.78
2018-12-12T01:49:20.425Z,6.67
2018-12-12T01:52:02.009Z,7.60
2018-12-12T01:54:43.642Z,6.28
2018-12-12T01:57:25.575Z,5.45
2018-12-12T02:00:07.451Z,8.73
2018-12-12T02:02:48.829Z,6.00
2018-12-12T02:05:31.696Z,5.95
2018-12-12T02:08:16.095Z,6.40
2018-12-12T02:10:57.798Z,6.50
2018-12-12T02:13:40.090Z,5.65
2018-12-12T02:16:22.586Z,7.28
2018-12-12T02:19:04.626Z,7.35
2018-12-12T02:21:46.598Z,8.83
2018-12-12T02:24:30.246Z,7.17
2018-12-12T02:27:12.351Z,7.35
2018-12-12T02:29:54.284Z,7.03
2018-12-12T02:32:37.024Z,7.15
2018-12-12T02:35:18.612Z,7.70
2018-12-12T02:38:00.188Z,6.72
2018-12-12T02:40:41.819Z,11.35
2018-12-12T02:43:23.781Z,6.50
2018-12-12T02:46:06.128Z,8.05
2018-12-12T02:48:48.475Z,7.62
2018-12-12T02:51:31.229Z,7.28
2018-12-12T02:54:12.739Z,7.17
2018-12-12T02:56:54.388Z,6.15
2018-12-12T02:59:35.586Z,7.58
2018-12-12T03:02:18.055Z,8.68
2018-12-12T03:04:59.433Z,9.40
2018-12-12T03:07:42.037Z,8.08
2018-12-12T03:10:23.848Z,8.55
2018-12-12T03:13:06.004Z,10.15
2018-12-12T03:15:47.370Z,10.38
2018-12-12T03:18:28.827Z,9.78
2018-12-12T03:21:10.546Z,9.63
2018-12-12T03:23:52.211Z,10.78
2018-12-12T03:26:33.635Z,10.40
2018-12-12T03:29:15.316Z,11.03
2018-12-12T03:31:56.848Z,10.38
2018-12-12T03:34:38.720Z,12.37
2018-12-12T03:37:20.430Z,10.40
2018-12-12T03:40:02.784Z,11.22
2018-12-12T03:42:45.696Z,9.93
2018-12-12T03:45:27.782Z,11.10
2018-12-12T03:48:09.424Z,9.18
2018-12-12T03:50:51.748Z,10.28
2018-12-12T03:53:33.484Z,14.65
2018-12-12T03:56:15.297Z,11.83
2018-12-12T03:58:56.652Z,12.43
2018-12-12T04:01:39.024Z,11.50
2018-12-12T04:04:20.986Z,9.53
2018-12-12T04:07:03.403Z,8.80
2018-12-12T04:09:44.671Z,12.53
2018-12-12T04:12:27.210Z,11.05
2018-12-12T04:15:09.930Z,9.58
2018-12-12T04:17:52.002Z,11.60
2018-12-12T04:20:34.191Z,10.18
2018-12-12T04:23:15.365Z,10.03
2018-12-12T04:25:56.989Z,9.25
2018-12-12T04:28:38.436Z,11.05
2018-12-12T04:31:20.740Z,10.48
2018-12-12T04:34:02.914Z,10.32
2018-12-12T04:36:51.818Z,11.12
2018-12-12T04:39:35.416Z,9.53
2018-12-12T04:42:17.996Z,10.30
2018-12-12T04:44:59.825Z,10.38
2018-12-12T04:47:41.777Z,8.63
2018-12-12T04:50:23.138Z,10.80
2018-12-12T04:53:04.933Z,9.98
2018-12-12T04:55:46.899Z,9.98
2018-12-12T04:58:28.825Z,9.98
2018-12-12T05:01:10.647Z,12.10
2018-12-12T05:03:52.051Z,10.68
2018-12-12T05:06:33.487Z,11.55
2018-12-12T05:09:14.694Z,14.05
2018-12-12T05:11:56.932Z,11.88
2018-12-12T05:14:38.666Z,11.53
2018-12-12T05:17:20.863Z,13.70
2018-12-12T05:20:02.441Z,13.32
2018-12-12T05:22:43.704Z,11.05
2018-12-12T05:25:26.060Z,13.80
2018-12-12T05:28:07.944Z,12.80
2018-12-12T05:30:49.235Z,13.55
2018-12-12T05:33:30.955Z,12.93
2018-12-12T05:36:13.632Z,17.42
2018-12-12T05:38:55.337Z,15.58
2018-12-12T05:41:37.026Z,13.53
2018-12-12T05:44:18.717Z,13.72
2018-12-12T05:47:00.657Z,15.40
2018-12-12T05:49:41.846Z,13.35
2018-12-12T05:52:23.786Z,11.85
2018-12-12T05:55:07.756Z,12.98
2018-12-12T05:57:49.603Z,12.70
2018-12-12T06:00:31.308Z,12.07
2018-12-12T06:03:13.660Z,11.88
2018-12-12T06:05:55.568Z,11.70
2018-12-12T06:08:37.268Z,13.68
2018-12-12T06:11:19.457Z,11.95
2018-12-12T06:14:01.092Z,10.65
2018-12-12T06:16:43.899Z,12.43
2018-12-12T06:19:25.288Z,11.30
2018-12-12T06:22:07.980Z,12.73
2018-12-12T06:24:49.929Z,13.40
2018-12-12T06:27:31.695Z,13.18
2018-12-12T06:30:13.385Z,11.30
2018-12-12T06:32:57.487Z,12.95
2018-12-12T06:35:40.283Z,14.57
2018-12-12T06:38:22.419Z,12.37
2018-12-12T06:41:05.119Z,15.30
2018-12-12T06:43:47.172Z,11.85
2018-12-12T06:46:35.765Z,11.88
2018-12-12T06:49:17.875Z,13.85
2018-12-12T06:52:00.206Z,12.25
2018-12-12T06:54:41.950Z,11.65
2018-12-12T06:57:28.067Z,12.07
2018-12-12T07:00:10.257Z,14.03
2018-12-12T07:02:52.115Z,13.65
2018-12-12T07:05:34.470Z,11.90
2018-12-12T07:08:16.095Z,11.75
2018-12-12T07:10:58.810Z,12.07
2018-12-12T07:13:41.030Z,14.25
2018-12-12T07:16:22.680Z,11.85
2018-12-12T07:19:05.587Z,14.10
2018-12-12T07:21:47.637Z,12.03
2018-12-12T07:24:29.963Z,14.68
2018-12-12T07:27:12.447Z,10.98
2018-12-12T07:29:54.299Z,12.25
2018-12-12T07:32:36.137Z,14.87
2018-12-12T07:35:17.978Z,12.88
2018-12-12T07:37:59.452Z,11.70
2018-12-12T07:40:41.896Z,12.50
2018-12-12T07:43:24.926Z,10.78
2018-12-12T07:46:12.551Z,10.88
2018-12-12T07:48:57.438Z,12.47
2018-12-12T07:51:45.069Z,9.15
2018-12-12T07:54:28.885Z,11.40
2018-12-12T07:57:10.678Z,9.43
2018-12-12T07:59:53.043Z,10.40
2018-12-12T08:02:34.881Z,11.28
2018-12-12T08:05:16.261Z,10.60
2018-12-12T08:07:58.251Z,10.68
2018-12-12T08:10:40.219Z,11.78
2018-12-12T08:13:22.454Z,10.55
2018-12-12T08:16:06.737Z,11.22
2018-12-12T08:18:49.353Z,10.08
2018-12-12T08:21:40.508Z,10.48
2018-12-12T08:24:22.730Z,10.63
2018-12-12T08:27:05.681Z,11.05
2018-12-12T08:29:48.098Z,11.63
2018-12-12T08:32:31.286Z,12.47
2018-12-12T08:35:12.845Z,10.23
2018-12-12T08:37:55.490Z,11.38
2018-12-12T08:40:37.055Z,10.40
2018-12-12T08:43:18.909Z,9.85
2018-12-12T08:46:02.785Z,8.63
2018-12-12T08:48:45.325Z,10.03
2018-12-12T08:51:28.811Z,10.08
2018-12-12T08:54:11.584Z,10.80
2018-12-12T08:56:54.705Z,10.93
2018-12-12T08:59:36.479Z,9.65
2018-12-12T09:02:18.021Z,10.65
2018-12-12T09:05:00.085Z,13.72
2018-12-12T09:07:41.598Z,15.35
2018-12-12T09:10:23.501Z,10.00
2018-12-12T09:13:06.087Z,25.95
2018-12-12T09:15:47.854Z,11.22
2018-12-12T09:18:30.123Z,12.00
2018-12-12T09:21:12.777Z,10.40
2018-12-12T09:23:55.330Z,12.88
2018-12-12T09:26:37.171Z,13.70
2018-12-12T09:29:18.965Z,12.28
2018-12-12T09:32:03.311Z,11.30
2018-12-12T09:34:47.012Z,9.80
2018-12-12T09:37:29.891Z,10.55
2018-12-12T09:40:12.078Z,12.05
2018-12-12T09:42:54.251Z,19.77
2018-12-12T09:45:36.907Z,32.05
2018-12-12T09:48:21.154Z,12.63
2018-12-12T09:51:07.243Z,19.98
2018-12-12T09:53:49.705Z,15.98
2018-12-12T09:56:32.481Z,19.05
2018-12-12T09:59:14.983Z,14.33
2018-12-12T10:01:57.434Z,11.97
2018-12-12T10:04:39.492Z,10.93
2018-12-12T10:07:21.807Z,15.68
2018-12-12T10:10:04.691Z,12.53
2018-12-12T10:12:46.966Z,12.10
2018-12-12T10:15:29.508Z,14.63
2018-12-12T10:18:12.137Z,14.33
2018-12-12T10:20:55.174Z,12.90
2018-12-12T10:23:37.909Z,14.07
2018-12-12T10:26:20.176Z,16.55
2018-12-12T10:29:02.842Z,15.80
2018-12-12T10:31:44.614Z,15.20
2018-12-12T10:34:26.480Z,13.72
2018-12-12T10:37:08.303Z,13.60
2018-12-12T10:39:50.937Z,13.55
2018-12-12T10:42:33.112Z,15.18
2018-12-12T10:45:14.997Z,15.95
2018-12-12T10:47:57.770Z,15.58
2018-12-12T10:50:40.035Z,15.93
2018-12-12T10:53:21.887Z,16.62
2018-12-12T10:56:04.579Z,20.20
2018-12-12T10:58:47.159Z,15.58
2018-12-12T11:01:33.494Z,15.32
2018-12-12T11:04:17.581Z,14.73
2018-12-12T11:06:59.851Z,13.75
2018-12-12T11:09:43.810Z,14.60
2018-12-12T11:12:25.911Z,13.58
2018-12-12T11:15:08.916Z,14.33
2018-12-12T11:17:51.155Z,13.28
2018-12-12T11:20:32.975Z,12.60
2018-12-12T11:23:14.879Z,14.73
2018-12-12T11:26:05.503Z,14.40
2018-12-12T11:28:48.162Z,13.98
2018-12-12T11:31:30.676Z,16.25
2018-12-12T11:34:12.646Z,14.10
2018-12-12T11:36:55.121Z,13.78
2018-12-12T11:39:37.468Z,21.20
2018-12-12T11:42:19.596Z,12.65
2018-12-12T11:45:01.547Z,12.88
2018-12-12T11:47:44.689Z,12.73
2018-12-12T11:50:27.181Z,13.95
2018-12-12T11:53:09.061Z,12.18
2018-12-12T11:55:53.737Z,13.65
2018-12-12T11:58:36.635Z,13.22
2018-12-12T12:01:18.801Z,12.55
2018-12-12T12:04:01.038Z,14.13
2018-12-12T12:06:43.556Z,14.03
2018-12-12T12:09:26.144Z,15.75
2018-12-12T12:12:08.982Z,13.90
2018-12-12T12:14:52.689Z,14.28
2018-12-12T12:17:35.299Z,17.20
2018-12-12T12:20:17.474Z,12.88
2018-12-12T12:23:00.868Z,14.15
2018-12-12T12:25:43.126Z,13.68
2018-12-12T12:28:25.625Z,13.50
2018-12-12T12:31:07.949Z,11.30
2018-12-12T12:33:50.494Z,9.93
2018-12-12T12:36:33.023Z,12.75
2018-12-12T12:39:15.119Z,15.55
2018-12-12T12:41:56.900Z,12.50
2018-12-12T12:44:38.867Z,16.93
2018-12-12T12:47:21.166Z,17.35
2018-12-12T12:50:03.329Z,14.38
2018-12-12T12:52:45.246Z,15.48
2018-12-12T12:55:27.190Z,15.15
2018-12-12T12:58:09.658Z,15.05
2018-12-12T13:00:51.403Z,16.23
2018-12-12T13:03:33.156Z,14.98
2018-12-12T13:06:15.161Z,15.60
2018-12-12T13:08:56.959Z,17.90
2018-12-12T13:11:39.715Z,16.93
2018-12-12T13:14:21.870Z,14.53
2018-12-12T13:17:04.174Z,14.38
2018-12-12T13:19:45.966Z,17.12
2018-12-12T13:22:28.235Z,13.83
2018-12-12T13:25:10.446Z,15.13
2018-12-12T13:27:52.996Z,18.00
2018-12-12T13:30:34.909Z,17.52
2018-12-12T13:33:16.877Z,16.62
2018-12-12T13:35:58.803Z,18.35
2018-12-12T13:38:40.516Z,17.37
2018-12-12T13:41:23.591Z,16.45
2018-12-12T13:44:06.626Z,15.45
2018-12-12T13:46:49.875Z,19.32
2018-12-12T13:49:32.303Z,17.42
2018-12-12T13:52:14.423Z,17.70
2018-12-12T13:54:57.784Z,17.37
2018-12-12T13:57:40.103Z,18.52
2018-12-12T14:00:22.403Z,18.48
2018-12-12T14:03:05.067Z,18.73
2018-12-12T14:05:47.372Z,17.42
2018-12-12T14:08:29.511Z,19.25
2018-12-12T14:11:12.136Z,20.82
2018-12-12T14:13:54.332Z,17.32
2018-12-12T14:16:36.967Z,19.15
2018-12-12T14:19:18.678Z,19.40
2018-12-12T14:22:01.270Z,18.75
2018-12-12T14:24:43.373Z,17.05
2018-12-12T14:27:25.699Z,15.63
2018-12-12T14:30:09.291Z,18.70
2018-12-12T14:32:51.379Z,17.30
2018-12-12T14:35:33.772Z,18.02
2018-12-12T14:38:15.645Z,17.70
2018-12-12T14:40:57.550Z,18.87
2018-12-12T14:43:40.019Z,20.77
2018-12-12T14:46:21.816Z,17.42
2018-12-12T14:49:03.976Z,16.10
2018-12-12T14:51:45.871Z,19.32
2018-12-12T14:54:27.688Z,18.95
2018-12-12T14:57:09.513Z,18.55
2018-12-12T14:59:50.775Z,19.32
2018-12-12T15:02:33.378Z,18.57
2018-12-12T15:05:16.063Z,19.20
2018-12-12T15:07:58.090Z,19.10
2018-12-12T15:10:40.124Z,21.35
2018-12-12T15:13:22.360Z,20.12
2018-12-12T15:16:04.028Z,18.52
2018-12-12T15:18:46.357Z,21.65
2018-12-12T15:21:29.137Z,19.60
2018-12-12T15:24:10.673Z,20.48
2018-12-12T15:26:52.567Z,21.95
2018-12-12T15:29:34.776Z,19.00
2018-12-12T15:32:16.496Z,21.97
2018-12-12T15:34:57.742Z,19.27
2018-12-12T15:37:40.641Z,19.27
2018-12-12T15:40:22.589Z,19.98
2018-12-12T15:43:04.575Z,21.40
2018-12-12T15:45:46.777Z,23.87
2018-12-12T15:48:29.008Z,23.12
2018-12-12T15:51:11.303Z,21.27
2018-12-12T15:53:53.436Z,22.20
2018-12-12T15:56:35.801Z,22.30
2018-12-12T15:59:17.638Z,22.67
2018-12-12T16:01:58.789Z,22.62
2018-12-12T16:04:40.989Z,22.30
2018-12-12T16:07:22.720Z,22.05
2018-12-12T16:10:04.993Z,22.10
2018-12-12T16:12:46.381Z,21.93
2018-12-12T16:15:29.025Z,23.02
2018-12-12T16:18:11.413Z,25.57
2018-12-12T16:20:52.627Z,22.37
2018-12-12T16:23:33.991Z,26.62
2018-12-12T16:26:15.402Z,23.95
2018-12-12T16:28:56.817Z,23.92
2018-12-12T16:31:38.208Z,23.30
2018-12-12T16:34:20.236Z,23.83
2018-12-12T16:37:02.534Z,26.80
2018-12-12T16:39:44.579Z,25.48
2018-12-12T16:42:26.257Z,25.70
2018-12-12T16:45:10.022Z,30.52
2018-12-12T16:47:53.678Z,28.77
2018-12-12T16:50:35.156Z,28.75
2018-12-12T16:53:17.239Z,27.45
2018-12-12T16:55:58.850Z,25.20
2018-12-12T16:58:40.749Z,20.70
2018-12-12T17:01:22.516Z,22.42
2018-12-12T17:04:05.258Z,23.18
2018-12-12T17:06:47.592Z,20.92
2018-12-12T17:09:29.321Z,22.37
2018-12-12T17:12:11.453Z,22.90
2018-12-12T17:14:52.807Z,24.07
2018-12-12T17:17:34.811Z,21.93
2018-12-12T17:20:16.501Z,22.00
2018-12-12T17:22:58.039Z,21.75
2018-12-12T17:25:39.355Z,21.68
2018-12-12T17:28:21.412Z,23.22
2018-12-12T17:31:03.269Z,25.27
2018-12-12T17:33:45.336Z,26.45
2018-12-12T17:36:27.024Z,23.90
2018-12-12T17:39:09.052Z,25.17
2018-12-12T17:41:54.517Z,31.02
2018-12-12T17:44:38.448Z,27.35
2018-12-12T17:47:19.947Z,30.33
2018-12-12T17:50:03.882Z,26.17
2018-12-12T17:52:45.639Z,36.07
2018-12-12T17:55:27.742Z,25.73
2018-12-12T17:58:09.589Z,30.03
2018-12-12T18:00:52.177Z,30.13
2018-12-12T18:03:36.161Z,25.80
2018-12-12T18:06:36.883Z,32.73
2018-12-12T18:09:19.962Z,29.37
2018-12-12T18:12:02.635Z,30.50
2018-12-12T18:14:44.131Z,29.93
2018-12-12T18:17:27.428Z,29.53
2018-12-12T18:20:09.721Z,31.00
2018-12-12T18:22:51.773Z,28.62
2018-12-12T18:25:35.104Z,32.13
2018-12-12T18:28:17.148Z,30.43
2018-12-12T18:30:59.311Z,33.00
2018-12-12T18:33:42.538Z,32.60
2018-12-12T18:36:28.602Z,33.43
2018-12-12T18:39:10.752Z,28.87
2018-12-12T18:41:53.003Z,27.33
2018-12-12T18:44:40.117Z,29.05
2018-12-12T18:47:22.741Z,28.23
2018-12-12T18:50:05.680Z,28.53
2018-12-12T18:52:49.540Z,37.05
2018-12-12T18:55:31.141Z,33.23
2018-12-12T18:58:12.827Z,28.27
2018-12-12T19:00:54.399Z,29.53
2018-12-12T19:03:36.217Z,30.53
2018-12-12T19:09:05.906Z,30.43
2018-12-12T19:11:49.926Z,33.75
2018-12-12T19:14:32.215Z,33.07
2018-12-12T19:17:14.228Z,34.07
2018-12-12T19:19:57.043Z,37.28
2018-12-12T19:22:40.227Z,39.35
2018-12-12T19:25:22.724Z,30.72
2018-12-12T19:28:05.092Z,35.80
2018-12-12T19:30:48.135Z,33.92
2018-12-12T19:33:29.971Z,33.10
2018-12-12T19:36:12.915Z,31.55
2018-12-12T19:38:54.986Z,32.53
2018-12-12T19:41:36.861Z,31.90
2018-12-12T19:44:19.208Z,33.13
2018-12-12T19:47:01.752Z,35.03
2018-12-12T19:49:43.404Z,35.70
2018-12-12T19:52:25.933Z,37.70
2018-12-12T19:55:07.858Z,31.80
2018-12-12T19:57:49.653Z,34.63
2018-12-12T20:00:31.313Z,38.92
2018-12-12T20:03:13.168Z,32.10
2018-12-12T20:05:56.264Z,35.77
2018-12-12T20:08:38.010Z,36.93
2018-12-12T20:11:25.786Z,33.73
2018-12-12T20:14:08.674Z,37.10
2018-12-12T20:16:50.989Z,34.00
2018-12-12T20:19:32.808Z,36.33
2018-12-12T20:22:14.117Z,35.67
2018-12-12T20:24:56.827Z,37.55
2018-12-12T20:27:38.574Z,36.53
2018-12-12T20:30:19.900Z,36.43
2018-12-12T20:33:01.875Z,36.80
2018-12-12T20:35:47.953Z,35.25
2018-12-12T20:38:27.860Z,34.67
2018-12-12T20:41:10.035Z,38.58
2018-12-12T20:43:53.526Z,33.83
2018-12-12T20:46:35.425Z,35.85
2018-12-12T20:49:16.659Z,29.80
2018-12-12T20:51:57.986Z,37.58
2018-12-12T20:54:39.403Z,33.65
2018-12-12T20:57:21.504Z,32.63
2018-12-12T21:00:03.452Z,34.18
2018-12-12T21:02:46.245Z,33.70
2018-12-12T21:05:28.528Z,32.85
2018-12-12T21:08:32.741Z,35.63
2018-12-12T21:11:15.824Z,33.48
2018-12-12T21:13:56.968Z,36.45
2018-12-12T21:16:38.184Z,33.65
2018-12-12T21:19:20.038Z,35.73
2018-12-12T21:22:01.940Z,40.83
2018-12-12T21:24:43.776Z,33.63
2018-12-12T21:27:25.123Z,34.40
2018-12-12T21:30:07.219Z,33.83
2018-12-12T21:32:48.670Z,34.50
2018-12-12T21:35:30.464Z,31.65
2018-12-12T21:38:13.100Z,31.62
2018-12-12T21:40:54.570Z,33.03
2018-12-12T21:43:35.971Z,29.97
2018-12-12T21:46:17.288Z,31.43
2018-12-12T21:48:59.174Z,27.37
2018-12-12T21:51:40.382Z,30.47
2018-12-12T21:54:21.969Z,29.87
2018-12-12T21:57:04.206Z,28.20
2018-12-12T21:59:46.401Z,28.87
2018-12-12T22:02:28.428Z,28.67
2018-12-12T22:05:09.833Z,29.37
2018-12-12T22:07:52.135Z,29.07
2018-12-12T22:10:33.371Z,31.27
2018-12-12T22:13:14.715Z,29.87
2018-12-12T22:15:56.242Z,27.90
2018-12-12T22:18:37.760Z,30.80
2018-12-12T22:21:22.765Z,26.60
2018-12-12T22:24:05.323Z,31.17
2018-12-12T22:26:48.189Z,30.13
2018-12-12T22:29:30.328Z,29.18
2018-12-12T22:32:13.407Z,31.42
2018-12-12T22:34:54.569Z,30.17
2018-12-12T22:37:36.328Z,31.45
2018-12-12T22:40:18.940Z,28.02
2018-12-12T22:43:01.176Z,31.12
2018-12-12T22:45:43.001Z,31.00
2018-12-12T22:48:24.591Z,34.00
2018-12-12T22:51:07.132Z,28.70
2018-12-12T22:53:48.683Z,32.05
2018-12-12T22:56:29.997Z,33.03
2018-12-12T22:59:11.323Z,29.00
2018-12-12T23:01:54.591Z,30.43
2018-12-12T23:04:36.411Z,28.83
2018-12-12T23:07:18.104Z,33.73
2018-12-12T23:10:00.052Z,32.07
2018-12-12T23:12:41.292Z,29.23
2018-12-12T23:15:23.048Z,31.97
2018-12-12T23:18:05.440Z,32.40
2018-12-12T23:20:46.981Z,32.10
2018-12-12T23:23:29.076Z,28.67
2018-12-12T23:26:10.603Z,30.27
2018-12-12T23:28:51.908Z,32.70
2018-12-12T23:31:33.963Z,35.45
2018-12-12T23:34:15.535Z,34.67
2018-12-12T23:36:57.205Z,34.07
2018-12-12T23:39:38.863Z,34.90
2018-12-12T23:42:20.460Z,34.60
2018-12-12T23:45:01.663Z,35.87
2018-12-12T23:47:43.143Z,33.83
2018-12-12T23:50:24.833Z,34.10
2018-12-12T23:53:08.133Z,34.77
2018-12-12T23:55:50.266Z,31.60
2018-12-12T23:58:31.987Z,37.77
